sensor_id;sensor_type;location;lat;lon;timestamp;P1;durP1;ratioP1;P2;durP2;ratioP2
5646;SDS011;2845;48.626;9.362;2022-07-29T00:03:34;6.07;;;3.65;;
5646;SDS011;2845;48.626;9.362;2022-07-29T00:06:05;5.28;;;3.38;;
5646;SDS011;2845;48.626;9.362;2022-07-29T00:08:38;5.22;;;3.28;;
5646;SDS011;2845;48.626;9.362;2022-07-29T00:14:36;6.53;;;3.55;;
5646;SDS011;2845;48.626;9.362;2022-07-29T00:19:44;5.38;;;3.35;;
5646;SDS011;2845;48.626;9.362;2022-07-29T00:26:19;6.80;;;3.55;;
5646;SDS011;2845;48.626;9.362;2022-07-29T00:32:56;5.78;;;3.65;;
5646;SDS011;2845;48.626;9.362;2022-07-29T00:42:24;5.05;;;3.40;;
5646;SDS011;2845;48.626;9.362;2022-07-29T00:49:01;9.93;;;4.15;;
5646;SDS011;2845;48.626;9.362;2022-07-29T00:51:46;7.43;;;3.67;;
5646;SDS011;2845;48.626;9.362;2022-07-29T00:54:21;7.07;;;3.35;;
5646;SDS011;2845;48.626;9.362;2022-07-29T00:56:50;5.80;;;4.15;;
5646;SDS011;2845;48.626;9.362;2022-07-29T01:03:27;7.15;;;4.50;;
5646;SDS011;2845;48.626;9.362;2022-07-29T01:05:57;6.32;;;3.83;;
5646;SDS011;2845;48.626;9.362;2022-07-29T01:08:27;10.05;;;3.70;;
5646;SDS011;2845;48.626;9.362;2022-07-29T01:10:59;6.82;;;4.35;;
5646;SDS011;2845;48.626;9.362;2022-07-29T01:17:11;6.85;;;4.40;;
5646;SDS011;2845;48.626;9.362;2022-07-29T01:19:48;6.65;;;3.47;;
5646;SDS011;2845;48.626;9.362;2022-07-29T01:26:33;6.70;;;4.15;;
5646;SDS011;2845;48.626;9.362;2022-07-29T01:33:00;7.63;;;4.38;;
5646;SDS011;2845;48.626;9.362;2022-07-29T01:35:43;6.63;;;3.53;;
5646;SDS011;2845;48.626;9.362;2022-07-29T01:38:17;9.57;;;4.05;;
5646;SDS011;2845;48.626;9.362;2022-07-29T01:40:52;6.07;;;3.40;;
5646;SDS011;2845;48.626;9.362;2022-07-29T01:47:32;6.25;;;3.60;;
5646;SDS011;2845;48.626;9.362;2022-07-29T01:54:20;6.70;;;3.70;;
5646;SDS011;2845;48.626;9.362;2022-07-29T01:56:55;4.90;;;3.08;;
5646;SDS011;2845;48.626;9.362;2022-07-29T01:59:26;5.78;;;3.65;;
5646;SDS011;2845;48.626;9.362;2022-07-29T02:01:57;6.43;;;4.40;;
5646;SDS011;2845;48.626;9.362;2022-07-29T02:04:27;5.63;;;3.58;;
5646;SDS011;2845;48.626;9.362;2022-07-29T02:06:58;7.97;;;3.72;;
5646;SDS011;2845;48.626;9.362;2022-07-29T02:09:33;6.75;;;4.53;;
5646;SDS011;2845;48.626;9.362;2022-07-29T02:12:04;5.32;;;3.67;;
5646;SDS011;2845;48.626;9.362;2022-07-29T02:14:40;5.10;;;3.33;;
5646;SDS011;2845;48.626;9.362;2022-07-29T02:17:12;5.25;;;3.17;;
5646;SDS011;2845;48.626;9.362;2022-07-29T02:23:40;7.30;;;4.05;;
5646;SDS011;2845;48.626;9.362;2022-07-29T02:26:17;6.03;;;3.90;;
5646;SDS011;2845;48.626;9.362;2022-07-29T02:28:48;7.85;;;3.90;;
5646;SDS011;2845;48.626;9.362;2022-07-29T02:31:22;4.82;;;3.50;;
5646;SDS011;2845;48.626;9.362;2022-07-29T02:33:53;4.57;;;2.85;;
5646;SDS011;2845;48.626;9.362;2022-07-29T02:36:27;5.10;;;3.13;;
5646;SDS011;2845;48.626;9.362;2022-07-29T02:43:07;5.05;;;2.95;;
5646;SDS011;2845;48.626;9.362;2022-07-29T02:49:47;3.55;;;2.47;;
5646;SDS011;2845;48.626;9.362;2022-07-29T02:52:23;4.07;;;2.45;;
5646;SDS011;2845;48.626;9.362;2022-07-29T02:59:05;6.63;;;2.85;;
5646;SDS011;2845;48.626;9.362;2022-07-29T03:01:45;3.72;;;2.45;;
5646;SDS011;2845;48.626;9.362;2022-07-29T03:04:22;3.55;;;2.20;;
5646;SDS011;2845;48.626;9.362;2022-07-29T03:06:55;5.00;;;2.22;;
5646;SDS011;2845;48.626;9.362;2022-07-29T03:09:28;3.40;;;2.20;;
5646;SDS011;2845;48.626;9.362;2022-07-29T03:11:58;3.67;;;2.22;;
5646;SDS011;2845;48.626;9.362;2022-07-29T03:14:30;3.28;;;2.25;;
5646;SDS011;2845;48.626;9.362;2022-07-29T03:17:04;3.97;;;2.42;;
5646;SDS011;2845;48.626;9.362;2022-07-29T03:19:32;4.90;;;2.95;;
5646;SDS011;2845;48.626;9.362;2022-07-29T03:22:01;4.50;;;2.80;;
5646;SDS011;2845;48.626;9.362;2022-07-29T03:24:32;4.53;;;2.40;;
5646;SDS011;2845;48.626;9.362;2022-07-29T03:27:02;4.32;;;2.25;;
5646;SDS011;2845;48.626;9.362;2022-07-29T03:29:33;4.43;;;2.10;;
5646;SDS011;2845;48.626;9.362;2022-07-29T03:36:09;5.22;;;2.50;;
5646;SDS011;2845;48.626;9.362;2022-07-29T03:42:39;4.63;;;2.47;;
5646;SDS011;2845;48.626;9.362;2022-07-29T03:49:20;4.47;;;2.53;;
5646;SDS011;2845;48.626;9.362;2022-07-29T03:52:04;4.32;;;3.05;;
5646;SDS011;2845;48.626;9.362;2022-07-29T03:54:33;3.53;;;2.10;;
5646;SDS011;2845;48.626;9.362;2022-07-29T03:57:03;4.18;;;2.40;;
5646;SDS011;2845;48.626;9.362;2022-07-29T03:59:34;4.55;;;2.40;;
5646;SDS011;2845;48.626;9.362;2022-07-29T04:02:04;3.60;;;2.42;;
5646;SDS011;2845;48.626;9.362;2022-07-29T04:04:36;4.10;;;2.38;;
5646;SDS011;2845;48.626;9.362;2022-07-29T04:07:05;4.20;;;2.75;;
5646;SDS011;2845;48.626;9.362;2022-07-29T04:12:25;4.32;;;2.03;;
5646;SDS011;2845;48.626;9.362;2022-07-29T04:14:58;4.95;;;2.70;;
5646;SDS011;2845;48.626;9.362;2022-07-29T04:17:28;4.97;;;2.67;;
5646;SDS011;2845;48.626;9.362;2022-07-29T04:26:33;5.07;;;3.08;;
5646;SDS011;2845;48.626;9.362;2022-07-29T04:33:04;5.60;;;3.15;;
5646;SDS011;2845;48.626;9.362;2022-07-29T04:51:15;4.68;;;2.63;;
5646;SDS011;2845;48.626;9.362;2022-07-29T04:53:44;4.45;;;2.75;;
5646;SDS011;2845;48.626;9.362;2022-07-29T04:56:13;13.20;;;2.70;;
5646;SDS011;2845;48.626;9.362;2022-07-29T04:58:42;5.22;;;2.58;;
5646;SDS011;2845;48.626;9.362;2022-07-29T05:01:11;3.55;;;2.58;;
5646;SDS011;2845;48.626;9.362;2022-07-29T05:03:40;4.30;;;2.55;;
5646;SDS011;2845;48.626;9.362;2022-07-29T05:06:09;3.60;;;2.05;;
5646;SDS011;2845;48.626;9.362;2022-07-29T05:08:40;4.27;;;2.90;;
5646;SDS011;2845;48.626;9.362;2022-07-29T05:11:10;6.68;;;3.38;;
5646;SDS011;2845;48.626;9.362;2022-07-29T05:13:44;5.22;;;2.90;;
5646;SDS011;2845;48.626;9.362;2022-07-29T05:16:13;6.05;;;2.42;;
5646;SDS011;2845;48.626;9.362;2022-07-29T05:18:46;6.63;;;2.60;;
5646;SDS011;2845;48.626;9.362;2022-07-29T05:28:57;4.07;;;2.78;;
5646;SDS011;2845;48.626;9.362;2022-07-29T05:31:26;4.47;;;2.65;;
5646;SDS011;2845;48.626;9.362;2022-07-29T05:33:56;4.25;;;2.40;;
5646;SDS011;2845;48.626;9.362;2022-07-29T05:36:25;4.88;;;2.60;;
5646;SDS011;2845;48.626;9.362;2022-07-29T05:38:54;3.65;;;2.53;;
5646;SDS011;2845;48.626;9.362;2022-07-29T05:41:23;8.60;;;2.83;;
5646;SDS011;2845;48.626;9.362;2022-07-29T05:47:54;11.57;;;2.42;;
5646;SDS011;2845;48.626;9.362;2022-07-29T05:54:30;3.45;;;2.15;;
5646;SDS011;2845;48.626;9.362;2022-07-29T05:57:04;6.95;;;2.45;;
5646;SDS011;2845;48.626;9.362;2022-07-29T06:03:42;3.08;;;1.88;;
5646;SDS011;2845;48.626;9.362;2022-07-29T06:06:11;3.58;;;2.08;;
5646;SDS011;2845;48.626;9.362;2022-07-29T06:08:39;4.70;;;2.55;;
5646;SDS011;2845;48.626;9.362;2022-07-29T06:15:15;3.72;;;2.20;;
5646;SDS011;2845;48.626;9.362;2022-07-29T06:21:53;3.95;;;2.15;;
5646;SDS011;2845;48.626;9.362;2022-07-29T06:32:04;3.80;;;2.38;;
5646;SDS011;2845;48.626;9.362;2022-07-29T06:34:36;3.95;;;2.55;;
5646;SDS011;2845;48.626;9.362;2022-07-29T06:37:09;3.58;;;2.28;;
5646;SDS011;2845;48.626;9.362;2022-07-29T06:39:41;3.85;;;2.30;;
5646;SDS011;2845;48.626;9.362;2022-07-29T06:42:09;5.20;;;2.40;;
5646;SDS011;2845;48.626;9.362;2022-07-29T06:44:38;4.95;;;2.40;;
5646;SDS011;2845;48.626;9.362;2022-07-29T06:47:06;4.20;;;2.58;;
5646;SDS011;2845;48.626;9.362;2022-07-29T06:49:36;3.95;;;2.70;;
5646;SDS011;2845;48.626;9.362;2022-07-29T06:52:05;5.20;;;2.13;;
5646;SDS011;2845;48.626;9.362;2022-07-29T06:54:36;3.72;;;2.28;;
5646;SDS011;2845;48.626;9.362;2022-07-29T06:57:10;3.90;;;2.10;;
5646;SDS011;2845;48.626;9.362;2022-07-29T06:59:46;2.92;;;2.08;;
5646;SDS011;2845;48.626;9.362;2022-07-29T07:02:14;3.20;;;2.00;;
5646;SDS011;2845;48.626;9.362;2022-07-29T07:04:43;3.15;;;2.05;;
5646;SDS011;2845;48.626;9.362;2022-07-29T07:07:14;2.88;;;2.00;;
5646;SDS011;2845;48.626;9.362;2022-07-29T07:09:44;3.88;;;2.17;;
5646;SDS011;2845;48.626;9.362;2022-07-29T07:16:19;3.65;;;1.70;;
5646;SDS011;2845;48.626;9.362;2022-07-29T07:18:49;3.65;;;1.70;;
5646;SDS011;2845;48.626;9.362;2022-07-29T07:21:17;2.38;;;1.83;;
5646;SDS011;2845;48.626;9.362;2022-07-29T07:23:46;3.28;;;1.90;;
5646;SDS011;2845;48.626;9.362;2022-07-29T07:30:26;3.30;;;1.95;;
5646;SDS011;2845;48.626;9.362;2022-07-29T07:32:58;3.70;;;2.33;;
5646;SDS011;2845;48.626;9.362;2022-07-29T07:35:28;2.38;;;1.77;;
5646;SDS011;2845;48.626;9.362;2022-07-29T07:37:57;3.92;;;2.20;;
5646;SDS011;2845;48.626;9.362;2022-07-29T07:40:28;3.30;;;2.20;;
5646;SDS011;2845;48.626;9.362;2022-07-29T07:46:58;4.50;;;2.17;;
5646;SDS011;2845;48.626;9.362;2022-07-29T07:53:44;2.65;;;1.95;;
5646;SDS011;2845;48.626;9.362;2022-07-29T08:03:28;4.47;;;2.35;;
5646;SDS011;2845;48.626;9.362;2022-07-29T08:14:16;4.85;;;2.10;;
5646;SDS011;2845;48.626;9.362;2022-07-29T08:16:45;3.97;;;2.38;;
5646;SDS011;2845;48.626;9.362;2022-07-29T08:19:17;2.70;;;2.00;;
5646;SDS011;2845;48.626;9.362;2022-07-29T08:21:46;3.10;;;2.10;;
5646;SDS011;2845;48.626;9.362;2022-07-29T08:24:16;3.55;;;2.33;;
5646;SDS011;2845;48.626;9.362;2022-07-29T08:27:02;3.30;;;2.15;;
5646;SDS011;2845;48.626;9.362;2022-07-29T08:29:51;3.13;;;2.13;;
5646;SDS011;2845;48.626;9.362;2022-07-29T08:32:22;3.97;;;2.22;;
5646;SDS011;2845;48.626;9.362;2022-07-29T08:35:12;3.67;;;2.03;;
5646;SDS011;2845;48.626;9.362;2022-07-29T08:37:41;2.80;;;2.13;;
5646;SDS011;2845;48.626;9.362;2022-07-29T08:40:10;3.38;;;1.90;;
5646;SDS011;2845;48.626;9.362;2022-07-29T08:46:40;3.53;;;2.03;;
5646;SDS011;2845;48.626;9.362;2022-07-29T08:53:17;2.63;;;2.20;;
5646;SDS011;2845;48.626;9.362;2022-07-29T09:00:05;4.70;;;2.10;;
5646;SDS011;2845;48.626;9.362;2022-07-29T09:05:32;3.05;;;2.28;;
5646;SDS011;2845;48.626;9.362;2022-07-29T09:08:10;4.70;;;2.70;;
5646;SDS011;2845;48.626;9.362;2022-07-29T09:18:55;3.10;;;2.22;;
5646;SDS011;2845;48.626;9.362;2022-07-29T09:21:23;3.80;;;2.47;;
5646;SDS011;2845;48.626;9.362;2022-07-29T09:24:10;3.28;;;2.45;;
5646;SDS011;2845;48.626;9.362;2022-07-29T09:26:42;4.53;;;2.65;;
5646;SDS011;2845;48.626;9.362;2022-07-29T09:29:23;3.95;;;2.67;;
5646;SDS011;2845;48.626;9.362;2022-07-29T09:31:59;4.50;;;2.58;;
5646;SDS011;2845;48.626;9.362;2022-07-29T09:34:29;4.00;;;2.50;;
5646;SDS011;2845;48.626;9.362;2022-07-29T09:36:59;3.58;;;2.30;;
5646;SDS011;2845;48.626;9.362;2022-07-29T09:39:28;3.03;;;2.30;;
5646;SDS011;2845;48.626;9.362;2022-07-29T09:42:00;3.83;;;2.30;;
5646;SDS011;2845;48.626;9.362;2022-07-29T09:44:46;3.33;;;2.83;;
5646;SDS011;2845;48.626;9.362;2022-07-29T09:47:22;4.38;;;2.50;;
5646;SDS011;2845;48.626;9.362;2022-07-29T09:50:13;2.67;;;2.38;;
5646;SDS011;2845;48.626;9.362;2022-07-29T09:52:46;3.40;;;2.50;;
5646;SDS011;2845;48.626;9.362;2022-07-29T09:55:16;3.85;;;2.55;;
5646;SDS011;2845;48.626;9.362;2022-07-29T09:57:45;3.15;;;2.85;;
5646;SDS011;2845;48.626;9.362;2022-07-29T10:00:15;3.90;;;2.93;;
5646;SDS011;2845;48.626;9.362;2022-07-29T10:02:46;3.47;;;2.50;;
5646;SDS011;2845;48.626;9.362;2022-07-29T10:05:18;4.40;;;3.40;;
5646;SDS011;2845;48.626;9.362;2022-07-29T10:07:50;4.18;;;3.08;;
5646;SDS011;2845;48.626;9.362;2022-07-29T10:10:23;3.88;;;3.00;;
5646;SDS011;2845;48.626;9.362;2022-07-29T10:12:54;5.95;;;3.83;;
5646;SDS011;2845;48.626;9.362;2022-07-29T10:15:34;3.78;;;3.00;;
5646;SDS011;2845;48.626;9.362;2022-07-29T10:18:16;3.97;;;3.25;;
5646;SDS011;2845;48.626;9.362;2022-07-29T10:20:53;3.67;;;3.20;;
5646;SDS011;2845;48.626;9.362;2022-07-29T10:27:19;4.57;;;3.00;;
5646;SDS011;2845;48.626;9.362;2022-07-29T10:29:53;3.67;;;3.05;;
5646;SDS011;2845;48.626;9.362;2022-07-29T10:32:26;4.10;;;3.00;;
5646;SDS011;2845;48.626;9.362;2022-07-29T10:35:11;5.07;;;3.13;;
5646;SDS011;2845;48.626;9.362;2022-07-29T10:41:01;4.75;;;3.60;;
5646;SDS011;2845;48.626;9.362;2022-07-29T10:54:48;5.45;;;3.17;;
5646;SDS011;2845;48.626;9.362;2022-07-29T11:01:29;4.25;;;3.45;;
5646;SDS011;2845;48.626;9.362;2022-07-29T11:04:04;4.57;;;3.47;;
5646;SDS011;2845;48.626;9.362;2022-07-29T11:13:48;7.90;;;3.40;;
5646;SDS011;2845;48.626;9.362;2022-07-29T11:16:31;5.25;;;3.63;;
5646;SDS011;2845;48.626;9.362;2022-07-29T11:19:32;5.25;;;3.65;;
5646;SDS011;2845;48.626;9.362;2022-07-29T11:22:07;4.72;;;3.50;;
5646;SDS011;2845;48.626;9.362;2022-07-29T11:24:41;3.78;;;3.25;;
5646;SDS011;2845;48.626;9.362;2022-07-29T11:27:16;4.97;;;3.33;;
5646;SDS011;2845;48.626;9.362;2022-07-29T11:29:53;3.78;;;3.10;;
5646;SDS011;2845;48.626;9.362;2022-07-29T11:32:29;4.80;;;3.53;;
5646;SDS011;2845;48.626;9.362;2022-07-29T11:35:12;4.50;;;3.20;;
5646;SDS011;2845;48.626;9.362;2022-07-29T11:43:53;3.03;;;2.15;;
5646;SDS011;2845;48.626;9.362;2022-07-29T11:50:34;5.32;;;1.20;;
5646;SDS011;2845;48.626;9.362;2022-07-29T11:57:25;1.70;;;1.15;;
5646;SDS011;2845;48.626;9.362;2022-07-29T12:00:21;3.55;;;1.40;;
5646;SDS011;2845;48.626;9.362;2022-07-29T12:02:53;3.03;;;1.20;;
5646;SDS011;2845;48.626;9.362;2022-07-29T12:05:42;2.90;;;1.27;;
5646;SDS011;2845;48.626;9.362;2022-07-29T12:11:15;3.53;;;1.60;;
5646;SDS011;2845;48.626;9.362;2022-07-29T12:13:48;2.75;;;1.45;;
5646;SDS011;2845;48.626;9.362;2022-07-29T12:16:22;1.52;;;1.13;;
5646;SDS011;2845;48.626;9.362;2022-07-29T12:18:58;6.10;;;2.40;;
5646;SDS011;2845;48.626;9.362;2022-07-29T12:21:43;4.55;;;1.63;;
5646;SDS011;2845;48.626;9.362;2022-07-29T12:24:22;3.80;;;2.20;;
5646;SDS011;2845;48.626;9.362;2022-07-29T12:26:53;4.18;;;2.05;;
5646;SDS011;2845;48.626;9.362;2022-07-29T12:29:24;3.13;;;1.70;;
5646;SDS011;2845;48.626;9.362;2022-07-29T12:32:01;2.88;;;1.80;;
5646;SDS011;2845;48.626;9.362;2022-07-29T12:34:44;2.05;;;1.33;;
5646;SDS011;2845;48.626;9.362;2022-07-29T12:37:17;8.40;;;2.00;;
5646;SDS011;2845;48.626;9.362;2022-07-29T12:40:06;5.55;;;1.42;;
5646;SDS011;2845;48.626;9.362;2022-07-29T12:42:36;3.00;;;1.35;;
5646;SDS011;2845;48.626;9.362;2022-07-29T12:45:10;2.30;;;1.35;;
5646;SDS011;2845;48.626;9.362;2022-07-29T12:47:50;3.03;;;1.40;;
5646;SDS011;2845;48.626;9.362;2022-07-29T12:50:19;2.63;;;1.52;;
5646;SDS011;2845;48.626;9.362;2022-07-29T12:52:53;2.10;;;1.42;;
5646;SDS011;2845;48.626;9.362;2022-07-29T12:55:38;2.10;;;1.60;;
5646;SDS011;2845;48.626;9.362;2022-07-29T12:58:10;2.88;;;1.70;;
5646;SDS011;2845;48.626;9.362;2022-07-29T13:00:39;2.83;;;1.58;;
5646;SDS011;2845;48.626;9.362;2022-07-29T13:29:22;2.13;;;1.42;;
5646;SDS011;2845;48.626;9.362;2022-07-29T13:36:14;2.10;;;1.70;;
5646;SDS011;2845;48.626;9.362;2022-07-29T13:38:46;2.42;;;1.60;;
5646;SDS011;2845;48.626;9.362;2022-07-29T13:41:18;2.33;;;1.63;;
5646;SDS011;2845;48.626;9.362;2022-07-29T13:46:45;3.58;;;1.50;;
5646;SDS011;2845;48.626;9.362;2022-07-29T13:49:16;3.25;;;1.88;;
5646;SDS011;2845;48.626;9.362;2022-07-29T13:51:54;3.30;;;2.08;;
5646;SDS011;2845;48.626;9.362;2022-07-29T14:05:48;4.05;;;2.63;;
5646;SDS011;2845;48.626;9.362;2022-07-29T14:08:20;3.70;;;2.20;;
5646;SDS011;2845;48.626;9.362;2022-07-29T14:10:49;5.93;;;2.45;;
5646;SDS011;2845;48.626;9.362;2022-07-29T14:17:18;2.92;;;2.20;;
5646;SDS011;2845;48.626;9.362;2022-07-29T14:19:47;4.00;;;2.30;;
5646;SDS011;2845;48.626;9.362;2022-07-29T14:22:16;3.65;;;2.40;;
5646;SDS011;2845;48.626;9.362;2022-07-29T14:24:52;2.78;;;2.00;;
5646;SDS011;2845;48.626;9.362;2022-07-29T14:27:21;2.92;;;2.17;;
5646;SDS011;2845;48.626;9.362;2022-07-29T14:30:03;4.05;;;2.40;;
5646;SDS011;2845;48.626;9.362;2022-07-29T14:32:35;2.85;;;1.90;;
5646;SDS011;2845;48.626;9.362;2022-07-29T14:35:04;4.68;;;2.13;;
5646;SDS011;2845;48.626;9.362;2022-07-29T14:37:46;3.40;;;2.15;;
5646;SDS011;2845;48.626;9.362;2022-07-29T14:40:17;3.63;;;1.95;;
5646;SDS011;2845;48.626;9.362;2022-07-29T14:42:45;3.05;;;1.98;;
5646;SDS011;2845;48.626;9.362;2022-07-29T14:45:14;2.90;;;1.70;;
5646;SDS011;2845;48.626;9.362;2022-07-29T14:47:44;2.40;;;1.80;;
5646;SDS011;2845;48.626;9.362;2022-07-29T14:50:22;2.88;;;1.92;;
5646;SDS011;2845;48.626;9.362;2022-07-29T15:08:24;2.90;;;2.10;;
5646;SDS011;2845;48.626;9.362;2022-07-29T15:10:57;3.33;;;2.38;;
5646;SDS011;2845;48.626;9.362;2022-07-29T15:13:27;3.72;;;2.30;;
5646;SDS011;2845;48.626;9.362;2022-07-29T15:20:04;2.60;;;1.98;;
5646;SDS011;2845;48.626;9.362;2022-07-29T15:25:42;3.78;;;2.13;;
5646;SDS011;2845;48.626;9.362;2022-07-29T15:32:16;4.22;;;2.55;;
5646;SDS011;2845;48.626;9.362;2022-07-29T15:38:06;2.92;;;1.95;;
5646;SDS011;2845;48.626;9.362;2022-07-29T15:40:42;3.83;;;2.20;;
5646;SDS011;2845;48.626;9.362;2022-07-29T15:43:16;4.45;;;2.60;;
5646;SDS011;2845;48.626;9.362;2022-07-29T15:45:51;4.00;;;2.13;;
5646;SDS011;2845;48.626;9.362;2022-07-29T15:48:38;4.10;;;2.60;;
5646;SDS011;2845;48.626;9.362;2022-07-29T15:51:10;3.50;;;2.60;;
5646;SDS011;2845;48.626;9.362;2022-07-29T15:53:39;3.97;;;2.58;;
5646;SDS011;2845;48.626;9.362;2022-07-29T15:59:53;3.88;;;2.60;;
5646;SDS011;2845;48.626;9.362;2022-07-29T16:02:23;4.50;;;3.17;;
5646;SDS011;2845;48.626;9.362;2022-07-29T16:04:52;4.10;;;2.97;;
5646;SDS011;2845;48.626;9.362;2022-07-29T16:07:22;3.65;;;2.50;;
5646;SDS011;2845;48.626;9.362;2022-07-29T16:09:57;4.28;;;2.65;;
5646;SDS011;2845;48.626;9.362;2022-07-29T16:18:28;3.72;;;2.40;;
5646;SDS011;2845;48.626;9.362;2022-07-29T16:21:04;4.03;;;2.65;;
5646;SDS011;2845;48.626;9.362;2022-07-29T16:27:17;3.42;;;2.58;;
5646;SDS011;2845;48.626;9.362;2022-07-29T17:09:29;3.80;;;3.00;;
5646;SDS011;2845;48.626;9.362;2022-07-29T17:15:10;4.75;;;2.60;;
5646;SDS011;2845;48.626;9.362;2022-07-29T17:20:52;4.47;;;2.65;;
5646;SDS011;2845;48.626;9.362;2022-07-29T17:23:25;3.92;;;2.88;;
5646;SDS011;2845;48.626;9.362;2022-07-29T17:26:12;3.60;;;2.40;;
5646;SDS011;2845;48.626;9.362;2022-07-29T17:31:36;4.78;;;2.83;;
5646;SDS011;2845;48.626;9.362;2022-07-29T17:37:56;3.75;;;2.50;;
5646;SDS011;2845;48.626;9.362;2022-07-29T17:44:19;4.85;;;3.13;;
5646;SDS011;2845;48.626;9.362;2022-07-29T17:47:01;5.93;;;3.80;;
5646;SDS011;2845;48.626;9.362;2022-07-29T17:49:33;7.18;;;4.30;;
5646;SDS011;2845;48.626;9.362;2022-07-29T17:52:03;4.25;;;3.58;;
5646;SDS011;2845;48.626;9.362;2022-07-29T17:54:34;4.73;;;3.30;;
5646;SDS011;2845;48.626;9.362;2022-07-29T17:57:22;5.50;;;3.30;;
5646;SDS011;2845;48.626;9.362;2022-07-29T17:59:56;4.40;;;3.08;;
5646;SDS011;2845;48.626;9.362;2022-07-29T18:02:28;4.22;;;3.00;;
5646;SDS011;2845;48.626;9.362;2022-07-29T18:05:04;3.55;;;2.80;;
5646;SDS011;2845;48.626;9.362;2022-07-29T18:07:34;5.10;;;3.33;;
5646;SDS011;2845;48.626;9.362;2022-07-29T18:10:03;4.28;;;2.88;;
5646;SDS011;2845;48.626;9.362;2022-07-29T18:12:32;4.65;;;3.40;;
5646;SDS011;2845;48.626;9.362;2022-07-29T18:15:03;3.88;;;2.80;;
5646;SDS011;2845;48.626;9.362;2022-07-29T18:17:33;4.00;;;2.83;;
5646;SDS011;2845;48.626;9.362;2022-07-29T18:20:28;4.13;;;2.88;;
5646;SDS011;2845;48.626;9.362;2022-07-29T18:22:58;4.57;;;3.00;;
5646;SDS011;2845;48.626;9.362;2022-07-29T18:25:34;4.50;;;2.92;;
5646;SDS011;2845;48.626;9.362;2022-07-29T18:28:05;4.78;;;3.28;;
5646;SDS011;2845;48.626;9.362;2022-07-29T18:30:39;5.30;;;3.08;;
5646;SDS011;2845;48.626;9.362;2022-07-29T18:33:09;5.90;;;3.42;;
5646;SDS011;2845;48.626;9.362;2022-07-29T18:39:35;5.28;;;3.65;;
5646;SDS011;2845;48.626;9.362;2022-07-29T18:45:57;3.85;;;2.70;;
5646;SDS011;2845;48.626;9.362;2022-07-29T18:48:46;5.15;;;2.80;;
5646;SDS011;2845;48.626;9.362;2022-07-29T18:51:16;3.45;;;2.60;;
5646;SDS011;2845;48.626;9.362;2022-07-29T18:54:04;4.40;;;2.80;;
5646;SDS011;2845;48.626;9.362;2022-07-29T19:00:23;4.05;;;2.78;;
5646;SDS011;2845;48.626;9.362;2022-07-29T19:06:48;5.00;;;3.10;;
5646;SDS011;2845;48.626;9.362;2022-07-29T19:12:57;3.40;;;2.78;;
5646;SDS011;2845;48.626;9.362;2022-07-29T19:15:28;5.28;;;2.90;;
5646;SDS011;2845;48.626;9.362;2022-07-29T19:21:28;4.13;;;3.10;;
5646;SDS011;2845;48.626;9.362;2022-07-29T19:23:58;4.95;;;2.70;;
5646;SDS011;2845;48.626;9.362;2022-07-29T19:26:34;5.85;;;3.47;;
5646;SDS011;2845;48.626;9.362;2022-07-29T19:32:55;4.80;;;3.22;;
5646;SDS011;2845;48.626;9.362;2022-07-29T19:38:28;3.83;;;2.70;;
5646;SDS011;2845;48.626;9.362;2022-07-29T19:41:00;4.88;;;3.10;;
5646;SDS011;2845;48.626;9.362;2022-07-29T19:47:19;4.50;;;2.95;;
5646;SDS011;2845;48.626;9.362;2022-07-29T19:53:34;4.63;;;2.80;;
5646;SDS011;2845;48.626;9.362;2022-07-29T19:56:04;5.60;;;3.83;;
5646;SDS011;2845;48.626;9.362;2022-07-29T20:01:21;5.40;;;2.70;;
5646;SDS011;2845;48.626;9.362;2022-07-29T20:15:15;3.88;;;2.90;;
5646;SDS011;2845;48.626;9.362;2022-07-29T20:21:32;5.68;;;3.33;;
5646;SDS011;2845;48.626;9.362;2022-07-29T20:24:16;4.70;;;2.80;;
5646;SDS011;2845;48.626;9.362;2022-07-29T20:26:46;4.60;;;3.17;;
5646;SDS011;2845;48.626;9.362;2022-07-29T20:29:16;3.00;;;2.38;;
5646;SDS011;2845;48.626;9.362;2022-07-29T20:35:28;6.50;;;2.67;;
5646;SDS011;2845;48.626;9.362;2022-07-29T20:41:46;4.32;;;2.83;;
5646;SDS011;2845;48.626;9.362;2022-07-29T20:44:15;4.22;;;2.70;;
5646;SDS011;2845;48.626;9.362;2022-07-29T20:46:45;4.28;;;2.67;;
5646;SDS011;2845;48.626;9.362;2022-07-29T20:49:14;5.28;;;3.00;;
5646;SDS011;2845;48.626;9.362;2022-07-29T20:51:54;4.80;;;2.78;;
5646;SDS011;2845;48.626;9.362;2022-07-29T20:54:22;4.22;;;3.10;;
5646;SDS011;2845;48.626;9.362;2022-07-29T21:00:39;4.80;;;2.65;;
5646;SDS011;2845;48.626;9.362;2022-07-29T21:06:03;5.35;;;3.30;;
5646;SDS011;2845;48.626;9.362;2022-07-29T21:08:42;6.40;;;3.10;;
5646;SDS011;2845;48.626;9.362;2022-07-29T21:11:22;4.82;;;3.10;;
5646;SDS011;2845;48.626;9.362;2022-07-29T21:14:10;3.78;;;2.53;;
5646;SDS011;2845;48.626;9.362;2022-07-29T21:16:58;4.88;;;3.00;;
5646;SDS011;2845;48.626;9.362;2022-07-29T21:19:30;4.22;;;2.70;;
5646;SDS011;2845;48.626;9.362;2022-07-29T21:24:57;5.13;;;3.00;;
5646;SDS011;2845;48.626;9.362;2022-07-29T21:27:28;4.80;;;2.78;;
5646;SDS011;2845;48.626;9.362;2022-07-29T21:30:16;4.18;;;2.35;;
5646;SDS011;2845;48.626;9.362;2022-07-29T21:32:45;4.57;;;2.95;;
5646;SDS011;2845;48.626;9.362;2022-07-29T21:35:16;6.18;;;2.85;;
5646;SDS011;2845;48.626;9.362;2022-07-29T21:41:12;5.82;;;2.70;;
5646;SDS011;2845;48.626;9.362;2022-07-29T21:43:42;3.85;;;2.58;;
5646;SDS011;2845;48.626;9.362;2022-07-29T21:46:11;3.15;;;2.30;;
5646;SDS011;2845;48.626;9.362;2022-07-29T21:48:42;4.05;;;2.75;;
5646;SDS011;2845;48.626;9.362;2022-07-29T21:51:11;5.10;;;2.75;;
5646;SDS011;2845;48.626;9.362;2022-07-29T21:57:27;4.10;;;2.72;;
5646;SDS011;2845;48.626;9.362;2022-07-29T21:59:57;4.45;;;2.53;;
5646;SDS011;2845;48.626;9.362;2022-07-29T22:02:28;4.65;;;2.80;;
5646;SDS011;2845;48.626;9.362;2022-07-29T22:11:16;4.45;;;2.65;;
5646;SDS011;2845;48.626;9.362;2022-07-29T22:13:47;4.25;;;2.45;;
5646;SDS011;2845;48.626;9.362;2022-07-29T22:19:58;3.35;;;2.80;;
5646;SDS011;2845;48.626;9.362;2022-07-29T22:26:15;4.40;;;2.38;;
5646;SDS011;2845;48.626;9.362;2022-07-29T22:28:44;4.57;;;2.75;;
5646;SDS011;2845;48.626;9.362;2022-07-29T22:35:03;4.35;;;2.30;;
5646;SDS011;2845;48.626;9.362;2022-07-29T22:41:22;5.05;;;2.90;;
5646;SDS011;2845;48.626;9.362;2022-07-29T22:47:39;3.22;;;2.10;;
5646;SDS011;2845;48.626;9.362;2022-07-29T22:50:16;4.13;;;2.80;;
5646;SDS011;2845;48.626;9.362;2022-07-29T22:55:56;5.45;;;2.97;;
5646;SDS011;2845;48.626;9.362;2022-07-29T22:58:34;5.65;;;3.30;;
5646;SDS011;2845;48.626;9.362;2022-07-29T23:04:44;4.43;;;2.47;;
5646;SDS011;2845;48.626;9.362;2022-07-29T23:07:18;4.68;;;3.08;;
5646;SDS011;2845;48.626;9.362;2022-07-29T23:13:34;7.00;;;3.13;;
5646;SDS011;2845;48.626;9.362;2022-07-29T23:16:03;5.90;;;3.15;;
5646;SDS011;2845;48.626;9.362;2022-07-29T23:18:36;7.65;;;3.63;;
5646;SDS011;2845;48.626;9.362;2022-07-29T23:21:04;6.53;;;3.13;;
5646;SDS011;2845;48.626;9.362;2022-07-29T23:23:35;6.35;;;3.42;;
5646;SDS011;2845;48.626;9.362;2022-07-29T23:26:04;5.47;;;2.75;;
5646;SDS011;2845;48.626;9.362;2022-07-29T23:28:33;3.97;;;2.50;;
5646;SDS011;2845;48.626;9.362;2022-07-29T23:34:43;5.63;;;2.38;;
5646;SDS011;2845;48.626;9.362;2022-07-29T23:37:16;4.90;;;2.95;;
5646;SDS011;2845;48.626;9.362;2022-07-29T23:39:48;4.32;;;2.70;;
5646;SDS011;2845;48.626;9.362;2022-07-29T23:45:43;3.67;;;2.70;;
5646;SDS011;2845;48.626;9.362;2022-07-29T23:48:14;4.03;;;2.30;;
5646;SDS011;2845;48.626;9.362;2022-07-29T23:50:43;5.38;;;2.50;;
5646;SDS011;2845;48.626;9.362;2022-07-29T23:53:12;4.10;;;2.58;;
5646;SDS011;2845;48.626;9.362;2022-07-29T23:55:42;3.90;;;2.78;;
